createdAt,value
2022-11-14T00:00:24.994Z,99.90
2022-11-14T00:04:29.678Z,99.90
2022-11-14T00:08:35.124Z,99.90
2022-11-14T00:12:38.438Z,99.90
2022-11-14T00:16:41.729Z,99.90
2022-11-14T00:20:45.003Z,99.90
2022-11-14T00:24:49.778Z,99.90
2022-11-14T00:28:53.134Z,99.90
2022-11-14T00:32:56.423Z,99.90
2022-11-14T00:36:59.732Z,99.90
2022-11-14T00:41:04.571Z,99.90
2022-11-14T00:45:08.586Z,99.90
2022-11-14T00:49:12.133Z,99.90
2022-11-14T00:53:15.603Z,99.90
2022-11-14T00:57:20.333Z,99.90
2022-11-14T01:01:23.793Z,99.90
2022-11-14T01:05:27.661Z,99.90
2022-11-14T01:09:31.179Z,99.90
2022-11-14T01:13:35.894Z,99.90
2022-11-14T01:17:39.364Z,99.90
2022-11-14T01:21:44.085Z,99.90
2022-11-14T01:25:47.713Z,99.90
2022-11-14T01:29:52.429Z,99.90
2022-11-14T01:33:56.169Z,99.90
2022-11-14T01:37:59.473Z,99.90
2022-11-14T01:42:03.267Z,99.90
2022-11-14T01:46:11.112Z,99.90
2022-11-14T01:50:14.743Z,99.90
2022-11-14T01:54:22.274Z,99.90
2022-11-14T01:58:27.097Z,99.90
2022-11-14T02:02:32.718Z,99.90
2022-11-14T02:06:37.049Z,99.90
2022-11-14T02:10:40.325Z,99.90
2022-11-14T02:14:46.500Z,99.90
2022-11-14T02:18:51.224Z,99.90
2022-11-14T02:22:56.414Z,99.90
2022-11-14T02:27:00.310Z,99.90
2022-11-14T02:31:03.646Z,99.90
2022-11-14T02:35:07.424Z,99.90
2022-11-14T02:39:12.104Z,99.90
2022-11-14T02:43:15.528Z,99.90
2022-11-14T02:47:18.827Z,99.90
2022-11-14T02:51:22.086Z,99.90
2022-11-14T02:55:26.796Z,99.90
2022-11-14T02:59:30.139Z,99.90
2022-11-14T03:03:33.501Z,99.90
2022-11-14T03:07:36.825Z,99.90
2022-11-14T03:11:41.814Z,99.90
2022-11-14T03:15:45.160Z,99.90
2022-11-14T03:19:48.552Z,99.90
2022-11-14T03:23:52.967Z,99.90
2022-11-14T03:27:57.652Z,99.90
2022-11-14T03:32:01.002Z,99.90
2022-11-14T03:36:05.146Z,99.90
2022-11-14T03:40:10.095Z,99.90
2022-11-14T03:44:14.873Z,99.90
2022-11-14T03:48:18.199Z,99.90
2022-11-14T03:52:21.686Z,99.90
2022-11-14T03:56:25.195Z,99.90
2022-11-14T04:00:30.179Z,99.90
2022-11-14T04:04:33.613Z,99.90
2022-11-14T04:08:37.062Z,99.90
2022-11-14T04:12:40.422Z,99.90
2022-11-14T04:16:45.083Z,99.90
2022-11-14T04:20:48.401Z,99.90
2022-11-14T04:24:51.659Z,99.90
2022-11-14T04:28:55.369Z,99.90
2022-11-14T04:33:00.079Z,99.90
2022-11-14T04:37:03.387Z,99.90
2022-11-14T04:41:06.915Z,99.90
2022-11-14T04:45:11.180Z,99.90
2022-11-14T04:49:15.880Z,99.90
2022-11-14T04:53:19.172Z,99.90
2022-11-14T04:57:22.581Z,99.90
2022-11-14T05:01:25.898Z,99.90
2022-11-14T05:05:30.680Z,99.90
2022-11-14T05:09:34.007Z,99.90
2022-11-14T05:13:37.374Z,99.90
2022-11-14T05:17:40.782Z,99.90
2022-11-14T05:21:45.495Z,99.90
2022-11-14T05:25:59.368Z,99.90
2022-11-14T05:30:02.796Z,99.90
2022-11-14T05:34:06.191Z,99.90
2022-11-14T05:38:10.872Z,99.90
2022-11-14T05:42:14.162Z,99.90
2022-11-14T05:46:18.667Z,99.90
2022-11-14T05:50:22.124Z,99.90
2022-11-14T05:54:26.975Z,99.90
2022-11-14T05:58:31.677Z,99.90
2022-11-14T06:02:35.264Z,99.90
2022-11-14T06:06:38.594Z,99.90
2022-11-14T06:10:43.376Z,99.90
2022-11-14T06:14:46.625Z,99.90
2022-11-14T06:18:49.964Z,99.90
2022-11-14T06:22:56.145Z,99.90
2022-11-14T06:27:03.085Z,99.90
2022-11-14T06:31:07.950Z,99.90
2022-11-14T06:35:12.174Z,99.90
2022-11-14T06:39:15.966Z,99.90
2022-11-14T06:43:20.713Z,99.90
2022-11-14T06:47:24.058Z,99.90
2022-11-14T06:51:27.371Z,99.90
2022-11-14T06:55:45.725Z,99.90
2022-11-14T06:59:50.460Z,99.90
2022-11-14T07:03:54.133Z,99.90
2022-11-14T07:07:59.460Z,99.90
2022-11-14T07:12:03.089Z,99.90
2022-11-14T07:16:08.648Z,99.90
2022-11-14T07:20:12.688Z,99.90
2022-11-14T07:24:16.248Z,99.90
2022-11-14T07:28:20.987Z,99.90
2022-11-14T07:32:25.707Z,99.90
2022-11-14T07:36:29.087Z,99.90
2022-11-14T07:40:32.337Z,99.90
2022-11-14T07:44:35.773Z,99.90
2022-11-14T07:48:40.838Z,99.90
2022-11-14T07:52:44.117Z,99.90
2022-11-14T07:56:47.532Z,99.90
2022-11-14T08:00:51.007Z,99.90
2022-11-14T08:04:55.823Z,99.90
2022-11-14T08:08:59.164Z,99.90
2022-11-14T08:13:30.155Z,99.90
2022-11-14T08:17:27.205Z,99.90
2022-11-14T08:21:31.992Z,99.90
2022-11-14T08:25:35.469Z,99.90
2022-11-14T08:29:38.990Z,99.90
2022-11-14T08:33:42.267Z,99.90
2022-11-14T08:37:46.901Z,99.90
2022-11-14T08:41:50.245Z,99.90
2022-11-14T08:45:53.622Z,99.90
2022-11-14T08:49:56.924Z,99.90
2022-11-14T08:54:01.601Z,99.90
2022-11-14T08:58:04.877Z,99.90
2022-11-14T09:02:08.182Z,99.90
2022-11-14T09:06:11.478Z,99.90
2022-11-14T09:10:16.466Z,99.90
2022-11-14T09:14:20.139Z,99.90
2022-11-14T09:18:23.399Z,99.90
2022-11-14T09:22:26.763Z,99.90
2022-11-14T09:26:32.030Z,99.90
2022-11-14T09:30:36.328Z,99.90
2022-11-14T09:34:43.141Z,99.90
2022-11-14T09:38:46.817Z,99.90
2022-11-14T09:43:18.109Z,99.30
2022-11-14T09:47:24.659Z,98.30
2022-11-14T09:51:32.547Z,96.40
2022-11-14T09:55:37.388Z,95.70
2022-11-14T09:59:42.363Z,95.70
2022-11-14T10:03:51.300Z,94.90
2022-11-14T10:08:13.761Z,94.00
2022-11-14T10:12:23.356Z,92.80
2022-11-14T10:16:42.130Z,92.20
2022-11-14T10:20:54.318Z,91.90
2022-11-14T10:25:17.931Z,91.90
2022-11-14T10:29:47.284Z,91.80
2022-11-14T10:34:00.611Z,90.80
2022-11-14T10:38:10.589Z,91.00
2022-11-14T10:42:17.946Z,90.00
2022-11-14T10:46:25.920Z,90.60
2022-11-14T10:50:41.710Z,92.10
2022-11-14T10:54:51.556Z,93.20
2022-11-14T10:58:54.884Z,93.50
2022-11-14T11:02:59.465Z,93.80
2022-11-14T11:07:40.804Z,93.30
2022-11-14T11:11:57.641Z,93.20
2022-11-14T11:16:03.036Z,91.80
2022-11-14T11:20:32.946Z,90.70
2022-11-14T11:24:38.968Z,85.80
2022-11-14T11:28:42.534Z,83.00
2022-11-14T11:32:46.151Z,80.90
2022-11-14T11:36:55.165Z,79.20
2022-11-14T11:41:15.553Z,74.90
2022-11-14T11:45:30.736Z,76.40
2022-11-14T11:49:41.731Z,81.70
2022-11-14T11:53:49.372Z,86.20
2022-11-14T11:58:03.638Z,90.20
2022-11-14T12:02:23.473Z,91.50
2022-11-14T12:06:30.719Z,92.40
2022-11-14T12:10:40.973Z,89.40
2022-11-14T12:15:10.711Z,83.20
2022-11-14T12:19:52.765Z,76.30
2022-11-14T12:24:37.795Z,70.80
2022-11-14T12:28:59.533Z,71.80
2022-11-14T12:33:09.890Z,72.90
2022-11-14T12:37:18.151Z,70.20
2022-11-14T12:41:26.450Z,68.60
2022-11-14T12:46:01.194Z,68.10
2022-11-14T12:50:36.481Z,69.20
2022-11-14T12:54:47.664Z,70.00
2022-11-14T12:59:14.591Z,72.80
2022-11-14T13:03:34.281Z,72.10
2022-11-14T13:07:47.257Z,75.30
2022-11-14T13:12:07.911Z,81.90
2022-11-14T13:16:38.695Z,88.20
2022-11-14T13:20:59.371Z,92.10
2022-11-14T13:25:21.082Z,93.30
2022-11-14T13:29:58.231Z,95.00
2022-11-14T13:34:02.421Z,96.40
2022-11-14T13:38:50.740Z,97.30
2022-11-14T13:43:06.369Z,98.90
2022-11-14T13:47:26.776Z,98.90
2022-11-14T13:51:43.450Z,98.70
2022-11-14T13:56:00.338Z,98.40
2022-11-14T14:00:19.684Z,98.60
2022-11-14T14:04:40.281Z,99.60
2022-11-14T14:09:02.163Z,99.90
2022-11-14T14:13:19.759Z,99.90
2022-11-14T14:17:32.112Z,99.90
2022-11-14T14:21:43.890Z,99.90
2022-11-14T14:25:55.666Z,99.90
2022-11-14T14:30:12.405Z,99.90
2022-11-14T14:34:29.530Z,99.90
2022-11-14T14:38:33.216Z,99.90
2022-11-14T14:42:41.145Z,99.90
2022-11-14T14:46:44.493Z,99.90
2022-11-14T14:50:59.327Z,99.90
2022-11-14T14:55:07.595Z,99.90
2022-11-14T14:59:18.712Z,99.90
2022-11-14T15:03:23.903Z,99.90
2022-11-14T15:07:32.876Z,99.90
2022-11-14T15:11:55.400Z,99.90
2022-11-14T15:16:13.124Z,99.90
2022-11-14T15:20:27.109Z,99.90
2022-11-14T15:24:32.369Z,99.90
2022-11-14T15:28:35.710Z,99.90
2022-11-14T15:32:38.995Z,99.90
2022-11-14T15:37:08.180Z,99.90
2022-11-14T15:41:19.684Z,99.90
2022-11-14T15:45:24.218Z,99.90
2022-11-14T15:49:28.324Z,99.90
2022-11-14T15:53:33.619Z,99.90
2022-11-14T15:57:39.325Z,99.90
2022-11-14T16:01:44.467Z,99.90
2022-11-14T16:05:47.875Z,99.90
2022-11-14T16:09:52.190Z,99.90
2022-11-14T16:13:56.990Z,99.90
2022-11-14T16:18:00.373Z,99.90
2022-11-14T16:22:06.509Z,99.90
2022-11-14T16:26:09.897Z,99.90
2022-11-14T16:30:16.517Z,99.90
2022-11-14T16:34:21.785Z,99.90
2022-11-14T16:38:25.074Z,99.90
2022-11-14T16:42:28.496Z,99.90
2022-11-14T16:46:33.210Z,99.90
2022-11-14T16:50:39.451Z,99.90
2022-11-14T16:54:43.236Z,99.90
2022-11-14T16:58:47.094Z,99.90
2022-11-14T17:02:52.427Z,99.90
2022-11-14T17:06:56.530Z,99.90
2022-11-14T17:11:00.575Z,99.90
2022-11-14T17:15:06.117Z,99.90
2022-11-14T17:19:15.973Z,99.90
2022-11-14T17:23:21.313Z,99.90
2022-11-14T17:27:25.601Z,99.90
2022-11-14T17:31:33.721Z,99.90
2022-11-14T17:35:44.043Z,99.90
2022-11-14T17:39:48.544Z,99.90
2022-11-14T17:43:54.360Z,99.90
2022-11-14T17:47:59.835Z,99.90
2022-11-14T17:52:05.807Z,99.90
2022-11-14T17:56:13.661Z,99.90
2022-11-14T18:00:18.852Z,99.90
2022-11-14T18:04:23.129Z,99.90
2022-11-14T18:08:29.846Z,99.90
2022-11-14T18:12:34.404Z,99.90
2022-11-14T18:17:05.308Z,99.90
2022-11-14T18:21:09.059Z,99.90
2022-11-14T18:25:15.360Z,99.90
2022-11-14T18:29:19.315Z,99.90
2022-11-14T18:33:23.730Z,99.90
2022-11-14T18:37:28.036Z,99.90
2022-11-14T18:41:38.441Z,99.90
2022-11-14T18:45:42.217Z,99.90
2022-11-14T18:49:47.000Z,99.90
2022-11-14T18:53:52.274Z,99.90
2022-11-14T18:58:00.477Z,99.90
2022-11-14T19:02:11.011Z,99.90
2022-11-14T19:06:16.218Z,99.90
2022-11-14T19:10:21.457Z,99.90
2022-11-14T19:14:28.053Z,99.90
2022-11-14T19:18:33.690Z,99.90
2022-11-14T19:22:38.145Z,99.90
2022-11-14T19:26:43.720Z,99.90
2022-11-14T19:31:01.541Z,99.90
2022-11-14T19:35:07.447Z,99.90
2022-11-14T19:39:14.385Z,99.90
2022-11-14T19:43:22.247Z,99.90
2022-11-14T19:47:28.855Z,99.90
2022-11-14T19:51:34.404Z,99.90
2022-11-14T19:55:40.135Z,99.90
2022-11-14T19:59:45.614Z,99.90
2022-11-14T20:03:56.042Z,99.90
2022-11-14T20:07:59.817Z,99.90
2022-11-14T20:12:04.528Z,99.90
2022-11-14T20:16:15.106Z,99.90
2022-11-14T20:20:21.991Z,99.90
2022-11-14T20:24:26.143Z,99.90
2022-11-14T20:28:30.423Z,99.90
2022-11-14T20:32:34.836Z,99.90
2022-11-14T20:37:09.139Z,99.90
2022-11-14T20:41:19.776Z,99.90
2022-11-14T20:45:24.417Z,99.90
2022-11-14T20:49:28.703Z,99.90
2022-11-14T20:53:35.264Z,99.90
2022-11-14T20:57:39.884Z,99.90
2022-11-14T21:01:44.235Z,99.90
2022-11-14T21:05:48.278Z,99.90
2022-11-14T21:10:13.190Z,99.90
2022-11-14T21:14:16.820Z,99.90
2022-11-14T21:18:20.757Z,99.90
2022-11-14T21:22:24.273Z,99.90
2022-11-14T21:26:30.470Z,99.90
2022-11-14T21:30:34.807Z,99.90
2022-11-14T21:34:38.017Z,99.90
2022-11-14T21:38:41.630Z,99.90
2022-11-14T21:42:46.328Z,99.90
2022-11-14T21:46:49.993Z,99.90
2022-11-14T21:50:53.592Z,99.90
2022-11-14T21:54:56.854Z,99.90
2022-11-14T21:59:16.023Z,99.90
2022-11-14T22:03:42.890Z,99.90
2022-11-14T22:07:46.086Z,99.90
2022-11-14T22:11:49.684Z,99.90
2022-11-14T22:15:54.349Z,99.90
2022-11-14T22:19:57.629Z,99.90
2022-11-14T22:24:01.072Z,99.90
2022-11-14T22:28:04.415Z,99.90
2022-11-14T22:32:09.127Z,99.90
2022-11-14T22:36:14.741Z,99.90
2022-11-14T22:40:18.207Z,99.90
2022-11-14T22:44:21.480Z,99.90
2022-11-14T22:48:26.923Z,99.90
2022-11-14T22:52:31.139Z,99.90
2022-11-14T22:56:34.420Z,99.90
2022-11-14T23:00:37.701Z,99.90
2022-11-14T23:04:42.714Z,99.90
2022-11-14T23:08:46.852Z,99.90
2022-11-14T23:12:50.354Z,99.90
2022-11-14T23:16:53.834Z,99.90
2022-11-14T23:21:04.064Z,99.90
2022-11-14T23:25:08.390Z,99.90
2022-11-14T23:29:15.306Z,99.90
2022-11-14T23:33:18.789Z,99.90
2022-11-14T23:37:23.618Z,99.90
2022-11-14T23:41:27.240Z,99.90
2022-11-14T23:45:30.778Z,99.90
2022-11-14T23:49:34.241Z,99.90
2022-11-14T23:53:39.217Z,99.90
2022-11-14T23:57:42.674Z,99.90
